createdAt,value
2016-10-27T00:00:36.724Z,957.82
2016-10-27T00:01:36.749Z,957.94
2016-10-27T00:02:36.704Z,957.96
2016-10-27T00:03:36.719Z,958.34
2016-10-27T00:04:36.733Z,958.3
2016-10-27T00:05:36.724Z,958.16
2016-10-27T00:06:36.714Z,958.39
2016-10-27T00:07:36.720Z,958.34
2016-10-27T00:08:36.772Z,958.3
2016-10-27T00:09:36.719Z,958.21
2016-10-27T00:10:36.743Z,958.46
2016-10-27T00:11:36.718Z,958.45
2016-10-27T00:12:36.727Z,958.22
2016-10-27T00:13:36.759Z,958.64
2016-10-27T00:14:36.720Z,958.52
2016-10-27T00:15:36.721Z,958.65
2016-10-27T00:16:36.718Z,958.81
2016-10-27T00:17:36.725Z,958.41
2016-10-27T00:18:36.762Z,958.92
2016-10-27T00:19:36.744Z,959.3
2016-10-27T00:20:36.737Z,959.47
2016-10-27T00:21:36.747Z,959.33
2016-10-27T00:22:36.739Z,959.26
2016-10-27T00:23:36.753Z,959.16
2016-10-27T00:24:36.716Z,959.4
2016-10-27T00:25:36.718Z,959.99
2016-10-27T00:26:36.731Z,959.63
2016-10-27T00:27:36.740Z,959.74
2016-10-27T00:28:36.753Z,960.14
2016-10-27T00:29:36.733Z,959.85
2016-10-27T00:30:36.732Z,960.34
2016-10-27T00:31:36.727Z,960.46
2016-10-27T00:32:36.746Z,960.25
2016-10-27T00:33:36.746Z,960.49
2016-10-27T00:34:36.744Z,960.88
2016-10-27T00:35:36.740Z,960.84
2016-10-27T00:36:36.730Z,961.35
2016-10-27T00:37:36.841Z,961.13
2016-10-27T00:38:37.707Z,961.82
2016-10-27T00:39:36.734Z,961.51
2016-10-27T00:40:36.747Z,962.52
2016-10-27T00:41:36.753Z,962.43
2016-10-27T00:42:36.768Z,963.18
2016-10-27T00:43:36.776Z,963.57
2016-10-27T00:44:36.769Z,964.09
2016-10-27T00:45:36.760Z,964.38
2016-10-27T00:46:36.764Z,964.81
2016-10-27T00:47:36.772Z,965.09
2016-10-27T00:48:36.778Z,965.98
2016-10-27T00:49:37.124Z,966.04
2016-10-27T00:50:36.751Z,966.38
2016-10-27T00:51:36.740Z,966.71
2016-10-27T00:52:36.751Z,967.39
2016-10-27T00:53:36.759Z,967.54
2016-10-27T00:54:36.749Z,967.8
2016-10-27T00:55:36.756Z,968.02
2016-10-27T00:56:36.734Z,968.21
2016-10-27T00:57:36.744Z,968.6
2016-10-27T00:58:36.764Z,968.61
2016-10-27T00:59:36.748Z,968.68
2016-10-27T01:00:36.763Z,968.35
2016-10-27T01:01:36.754Z,968.56
2016-10-27T01:02:36.750Z,968.72
2016-10-27T01:03:36.766Z,969.02
2016-10-27T01:04:36.767Z,968.63
2016-10-27T01:05:36.759Z,968.81
2016-10-27T01:06:36.782Z,968.75
2016-10-27T01:07:37.346Z,968.95
2016-10-27T01:08:36.780Z,968.71
2016-10-27T01:09:36.802Z,968.54
2016-10-27T01:10:37.149Z,969.16
2016-10-27T01:11:36.772Z,968.79
2016-10-27T01:12:36.783Z,968.95
2016-10-27T01:13:36.788Z,968.89
2016-10-27T01:14:37.088Z,969.3
2016-10-27T01:15:36.784Z,969.31
2016-10-27T01:16:36.776Z,968.94
2016-10-27T01:17:36.768Z,969.13
2016-10-27T01:18:36.788Z,969.38
2016-10-27T01:19:36.768Z,968.85
2016-10-27T01:20:36.787Z,969.12
2016-10-27T01:21:36.768Z,968.7
2016-10-27T01:22:36.768Z,968.66
2016-10-27T01:23:36.788Z,968.38
2016-10-27T01:24:36.809Z,968.37
2016-10-27T01:25:36.771Z,968.45
2016-10-27T01:26:36.795Z,968.39
2016-10-27T01:27:36.771Z,968.64
2016-10-27T01:28:36.786Z,969.02
2016-10-27T01:29:36.769Z,969.06
2016-10-27T01:30:36.778Z,968.6
2016-10-27T01:31:36.778Z,968.48
2016-10-27T01:32:36.784Z,968.84
2016-10-27T01:33:36.791Z,968.76
2016-10-27T01:34:36.790Z,968.96
2016-10-27T01:35:36.780Z,969.35
2016-10-27T01:36:36.781Z,969.93
2016-10-27T01:37:36.773Z,969.8
2016-10-27T01:38:36.786Z,969.99
2016-10-27T01:39:36.787Z,969.66
2016-10-27T01:40:36.798Z,970.11
2016-10-27T01:41:36.778Z,970.19
2016-10-27T01:42:38.117Z,970.32
2016-10-27T01:43:36.801Z,970.38
2016-10-27T01:44:36.789Z,970.5
2016-10-27T01:45:36.789Z,971.12
2016-10-27T01:46:36.774Z,971.22
2016-10-27T01:47:36.796Z,971.22
2016-10-27T01:48:36.804Z,972.15
2016-10-27T01:49:36.781Z,972.29
2016-10-27T01:50:36.780Z,972.04
2016-10-27T01:51:36.780Z,972.61
2016-10-27T01:52:36.774Z,972.87
2016-10-27T01:53:37.105Z,973.47
2016-10-27T01:54:37.414Z,973.54
2016-10-27T01:55:36.812Z,973.65
2016-10-27T01:56:37.756Z,974.01
2016-10-27T01:57:36.794Z,974.17
2016-10-27T01:58:36.837Z,974.76
2016-10-27T01:59:36.805Z,975.27
2016-10-27T02:00:36.812Z,975.15
2016-10-27T02:01:36.818Z,975.49
2016-10-27T02:02:36.825Z,975.81
2016-10-27T02:03:36.819Z,976.1
2016-10-27T02:04:36.797Z,976.61
2016-10-27T02:05:36.811Z,976.82
2016-10-27T02:06:36.810Z,977.18
2016-10-27T02:07:36.823Z,977.04
2016-10-27T02:08:36.828Z,977.48
2016-10-27T02:09:36.809Z,977.59
2016-10-27T02:10:36.800Z,978.55
2016-10-27T02:11:36.814Z,978.2
2016-10-27T02:12:36.803Z,978.52
2016-10-27T02:13:36.805Z,978.24
2016-10-27T02:14:36.812Z,978.32
2016-10-27T02:15:36.819Z,978.63
2016-10-27T02:16:36.865Z,978.74
2016-10-27T02:17:36.836Z,978.71
2016-10-27T02:18:36.842Z,979.28
2016-10-27T02:19:36.815Z,979.09
2016-10-27T02:20:36.818Z,979.64
2016-10-27T02:21:36.842Z,979.53
2016-10-27T02:22:36.832Z,980.1
2016-10-27T02:23:36.867Z,980.36
2016-10-27T02:24:36.836Z,980.13
2016-10-27T02:25:36.838Z,979.87
2016-10-27T02:26:36.820Z,980.47
2016-10-27T02:27:36.822Z,980.51
2016-10-27T02:28:36.817Z,980.39
2016-10-27T02:29:36.841Z,980.84
2016-10-27T02:30:36.825Z,980.61
2016-10-27T02:31:36.864Z,981.23
2016-10-27T02:32:36.820Z,981.32
2016-10-27T02:33:36.842Z,981.04
2016-10-27T02:34:36.827Z,981.48
2016-10-27T02:35:36.814Z,981.93
2016-10-27T02:36:36.825Z,982.21
2016-10-27T02:37:36.836Z,982.2
2016-10-27T02:38:36.839Z,982.07
2016-10-27T02:39:36.832Z,982.7
2016-10-27T02:40:36.829Z,982.92
2016-10-27T02:41:36.831Z,982.58
2016-10-27T02:42:36.834Z,983.05
2016-10-27T02:43:36.845Z,982.5
2016-10-27T02:44:36.841Z,982.72
2016-10-27T02:45:36.844Z,983.02
2016-10-27T02:46:36.881Z,982.29
2016-10-27T02:47:36.858Z,982
2016-10-27T02:48:36.859Z,981.95
2016-10-27T02:49:36.841Z,982.61
2016-10-27T02:50:36.858Z,982.34
2016-10-27T02:51:36.844Z,982.38
2016-10-27T02:52:36.849Z,982.59
2016-10-27T02:53:36.872Z,982.75
2016-10-27T02:54:36.858Z,983.05
2016-10-27T02:55:36.945Z,983.05
2016-10-27T02:56:36.883Z,983.52
2016-10-27T02:57:36.841Z,983.35
2016-10-27T02:58:36.861Z,983.39
2016-10-27T02:59:36.852Z,983.2
2016-10-27T03:00:36.855Z,983.56
2016-10-27T03:01:36.861Z,983.87
2016-10-27T03:02:36.852Z,984.16
2016-10-27T03:03:36.864Z,984.12
2016-10-27T03:04:36.861Z,984.66
2016-10-27T03:05:36.864Z,984.92
2016-10-27T03:06:36.902Z,984.77
2016-10-27T03:07:36.860Z,985.44
2016-10-27T03:08:36.899Z,985.47
2016-10-27T03:09:36.852Z,985.61
2016-10-27T03:10:36.862Z,985.59
2016-10-27T03:11:36.881Z,986.09
2016-10-27T03:12:36.851Z,985.73
2016-10-27T03:13:36.893Z,986.28
2016-10-27T03:14:36.865Z,985.82
2016-10-27T03:15:36.862Z,985.96
2016-10-27T03:16:36.882Z,986.15
2016-10-27T03:17:36.877Z,985.92
2016-10-27T03:18:36.899Z,986.29
2016-10-27T03:19:36.856Z,986.43
2016-10-27T03:20:36.874Z,986.49
2016-10-27T03:21:36.852Z,986.63
2016-10-27T03:22:36.859Z,986.85
2016-10-27T03:23:36.886Z,987.36
2016-10-27T03:24:36.928Z,987.14
2016-10-27T03:25:36.897Z,987.41
2016-10-27T03:26:36.869Z,987.21
2016-10-27T03:27:36.887Z,987.04
2016-10-27T03:28:36.894Z,987.11
2016-10-27T03:29:36.872Z,987
2016-10-27T03:30:36.872Z,987.01
2016-10-27T03:31:36.873Z,987.56
2016-10-27T03:32:36.881Z,987.76
2016-10-27T03:33:36.910Z,988.24
2016-10-27T03:34:36.884Z,988.51
2016-10-27T03:35:36.866Z,989.11
2016-10-27T03:36:36.897Z,989.77
2016-10-27T03:37:36.902Z,990.06
2016-10-27T03:38:36.919Z,990.25
2016-10-27T03:39:36.889Z,990.94
2016-10-27T03:40:36.904Z,991.46
2016-10-27T03:41:36.910Z,991.62
2016-10-27T03:42:36.904Z,992.09
2016-10-27T03:43:36.910Z,992.61
2016-10-27T03:44:36.908Z,993.28
2016-10-27T03:45:36.905Z,993.6
2016-10-27T03:46:37.033Z,993.86
2016-10-27T03:47:36.898Z,994.33
2016-10-27T03:48:36.899Z,995.18
2016-10-27T03:49:36.893Z,995.25
2016-10-27T03:50:36.887Z,995.45
2016-10-27T03:51:36.909Z,995.62
2016-10-27T03:52:36.908Z,995.69
2016-10-27T03:53:36.923Z,996.42
2016-10-27T03:54:36.913Z,996.16
2016-10-27T03:55:36.921Z,996.79
2016-10-27T03:56:36.894Z,997.26
2016-10-27T03:57:36.914Z,997.04
2016-10-27T03:58:36.942Z,997.22
2016-10-27T03:59:36.908Z,997.12
2016-10-27T04:00:36.906Z,997.3
2016-10-27T04:01:36.903Z,997.19
2016-10-27T04:02:36.901Z,997.13
2016-10-27T04:03:36.923Z,996.96
2016-10-27T04:04:36.894Z,996.99
2016-10-27T04:05:36.911Z,996.97
2016-10-27T04:06:36.927Z,996.78
2016-10-27T04:07:36.912Z,996.68
2016-10-27T04:08:36.910Z,996.6
2016-10-27T04:09:36.924Z,996.21
2016-10-27T04:10:36.936Z,995.84
2016-10-27T04:11:36.910Z,995.72
2016-10-27T04:12:39.101Z,995.63
2016-10-27T04:13:39.650Z,995.62
2016-10-27T04:14:38.949Z,995.77
2016-10-27T04:15:39.309Z,995.57
2016-10-27T04:16:36.930Z,995.14
2016-10-27T04:17:39.292Z,995.11
2016-10-27T04:18:39.470Z,995.04
2016-10-27T04:19:39.039Z,994.58
2016-10-27T04:20:39.210Z,994.8
2016-10-27T04:21:38.935Z,994.91
2016-10-27T04:22:39.345Z,995.33
2016-10-27T04:23:39.312Z,995.34
2016-10-27T04:24:36.924Z,995.45
2016-10-27T04:25:36.952Z,995.91
2016-10-27T04:26:36.933Z,995.52
2016-10-27T04:27:37.080Z,995.33
2016-10-27T04:28:36.944Z,995.02
2016-10-27T04:29:36.939Z,995.06
2016-10-27T04:30:36.933Z,995.5
2016-10-27T04:31:36.930Z,995.28
2016-10-27T04:32:36.943Z,995.86
2016-10-27T04:33:36.946Z,995.85
2016-10-27T04:34:36.931Z,996.31
2016-10-27T04:35:36.927Z,996.05
2016-10-27T04:36:36.947Z,996.53
2016-10-27T04:37:36.930Z,996.31
2016-10-27T04:38:36.944Z,996.33
2016-10-27T04:39:36.934Z,996.92
2016-10-27T04:40:36.943Z,997.06
2016-10-27T04:41:36.924Z,997.06
2016-10-27T04:42:36.957Z,997.27
2016-10-27T04:43:36.948Z,997.39
2016-10-27T04:44:36.957Z,997.36
2016-10-27T04:45:36.925Z,997.33
2016-10-27T04:46:36.956Z,997.64
2016-10-27T04:47:36.920Z,998.44
2016-10-27T04:48:36.985Z,998.46
2016-10-27T04:49:36.933Z,998.36
2016-10-27T04:50:36.948Z,998.83
2016-10-27T04:51:36.931Z,999.04
2016-10-27T04:52:36.952Z,998.59
2016-10-27T04:53:36.981Z,998.35
2016-10-27T04:54:36.957Z,998.58
2016-10-27T04:55:36.944Z,998.82
2016-10-27T04:56:36.957Z,998.81
2016-10-27T04:57:36.953Z,999.19
2016-10-27T04:58:36.973Z,998.92
2016-10-27T04:59:36.947Z,998.92
2016-10-27T05:00:36.938Z,999.22
2016-10-27T05:01:36.953Z,998.91
2016-10-27T05:02:36.944Z,999.07
2016-10-27T05:03:36.976Z,999.05
2016-10-27T05:04:36.963Z,999.4
2016-10-27T05:05:36.953Z,999.12
2016-10-27T05:06:36.958Z,998.85
2016-10-27T05:07:36.950Z,998.54
2016-10-27T05:08:36.966Z,998.83
2016-10-27T05:09:36.957Z,999.15
2016-10-27T05:10:36.996Z,999.4
2016-10-27T05:11:37.454Z,999.31
2016-10-27T05:12:36.980Z,999.64
2016-10-27T05:13:37.003Z,999.62
2016-10-27T05:14:36.976Z,1000.06
2016-10-27T05:15:36.963Z,1000.42
2016-10-27T05:16:37.911Z,1000.92
2016-10-27T05:17:37.363Z,1001.04
2016-10-27T05:18:37.002Z,1001.76
2016-10-27T05:19:36.976Z,1001.66
2016-10-27T05:20:36.971Z,1001.91
2016-10-27T05:21:36.972Z,1001.55
2016-10-27T05:22:36.977Z,1002.43
2016-10-27T05:23:36.967Z,1002.1
2016-10-27T05:24:36.956Z,1001.97
2016-10-27T05:25:37.082Z,1001.68
2016-10-27T05:26:36.953Z,1001.34
2016-10-27T05:27:36.989Z,1001.2
2016-10-27T05:28:37.002Z,1001.21
2016-10-27T05:29:36.972Z,1001.21
2016-10-27T05:30:36.978Z,1001.26
2016-10-27T05:31:36.970Z,1001.94
2016-10-27T05:32:37.061Z,1002.18
2016-10-27T05:33:36.987Z,1002.24
2016-10-27T05:34:36.977Z,1002.66
2016-10-27T05:35:36.977Z,1002.68
2016-10-27T05:36:36.977Z,1002.51
2016-10-27T05:37:36.985Z,1002.74
2016-10-27T05:38:36.978Z,1002.6
2016-10-27T05:39:36.984Z,1002.43
2016-10-27T05:40:36.977Z,1002.34
2016-10-27T05:41:37.010Z,1002.5
2016-10-27T05:42:36.988Z,1002.54
2016-10-27T05:43:37.011Z,1002.17
2016-10-27T05:44:36.984Z,1002.65
2016-10-27T05:45:36.978Z,1002.44
2016-10-27T05:46:36.978Z,1002.64
2016-10-27T05:47:36.968Z,1002.49
2016-10-27T05:48:37.012Z,1002.42
2016-10-27T05:49:36.990Z,1002.49
2016-10-27T05:50:37.001Z,1002.43
2016-10-27T05:51:36.996Z,1002.39
2016-10-27T05:52:36.984Z,1003.08
2016-10-27T05:53:37.011Z,1003.18
2016-10-27T05:54:37.004Z,1003.24
2016-10-27T05:55:36.991Z,1003.48
2016-10-27T05:56:36.992Z,1003.9
2016-10-27T05:57:36.987Z,1003.81
2016-10-27T05:58:37.032Z,1003.58
2016-10-27T05:59:37.002Z,1003.44
2016-10-27T06:00:37.009Z,1003.63
2016-10-27T06:01:37.017Z,1003.67
2016-10-27T06:02:36.993Z,1004.02
2016-10-27T06:03:37.311Z,1003.61
2016-10-27T06:04:36.996Z,1003.7
2016-10-27T06:05:37.002Z,1004.05
2016-10-27T06:06:37.025Z,1004.14
2016-10-27T06:07:37.178Z,1003.88
2016-10-27T06:08:36.997Z,1004.06
2016-10-27T06:09:37.003Z,1004.33
2016-10-27T06:10:36.987Z,1004.49
2016-10-27T06:11:37.005Z,1004.82
2016-10-27T06:12:37.003Z,1005.27
2016-10-27T06:13:37.003Z,1005.08
2016-10-27T06:14:36.994Z,1005.5
2016-10-27T06:15:37.013Z,1005.74
2016-10-27T06:16:37.017Z,1006.36
2016-10-27T06:17:36.987Z,1006.69
2016-10-27T06:18:37.012Z,1007.37
2016-10-27T06:19:36.996Z,1007.94
2016-10-27T06:20:37.020Z,1008.57
2016-10-27T06:21:37.013Z,1009.13
2016-10-27T06:22:37.010Z,1009.68
2016-10-27T06:23:37.020Z,1010.31
2016-10-27T06:24:37.025Z,1010.35
2016-10-27T06:25:37.002Z,1010.91
2016-10-27T06:26:37.003Z,1010.65
2016-10-27T06:27:37.001Z,1011.27
2016-10-27T06:28:37.006Z,1011.19
2016-10-27T06:29:37.022Z,1011.13
2016-10-27T06:30:37.048Z,1011.57
2016-10-27T06:31:37.056Z,1011.59
2016-10-27T06:32:37.007Z,1011.92
2016-10-27T06:33:37.013Z,1011.83
2016-10-27T06:34:37.007Z,1012.17
2016-10-27T06:35:37.031Z,1012.68
2016-10-27T06:36:37.034Z,1012.94
2016-10-27T06:37:37.057Z,1013.21
2016-10-27T06:38:37.053Z,1013.23
2016-10-27T06:39:37.028Z,1013.12
2016-10-27T06:40:37.021Z,1014.21
2016-10-27T06:41:37.019Z,1014.35
2016-10-27T06:42:37.037Z,1014.79
2016-10-27T06:43:37.024Z,1015.18
2016-10-27T06:44:37.036Z,1015.5
2016-10-27T06:45:37.031Z,1015.85
2016-10-27T06:46:37.048Z,1016.25
2016-10-27T06:47:37.037Z,1016.78
2016-10-27T06:48:37.037Z,1017.27
2016-10-27T06:49:37.035Z,1017.84
2016-10-27T06:50:37.037Z,1018.54
2016-10-27T06:51:37.031Z,1018.73
2016-10-27T06:52:37.050Z,1019.05
2016-10-27T06:53:37.030Z,1019.78
2016-10-27T06:54:37.043Z,1019.96
2016-10-27T06:55:37.140Z,1020.7
2016-10-27T06:56:37.140Z,1020.93
2016-10-27T06:57:37.078Z,1021.53
2016-10-27T06:58:37.042Z,1022.28
2016-10-27T06:59:37.046Z,1022.77
2016-10-27T07:00:37.037Z,1023.21
2016-10-27T07:01:37.040Z,1023.8
2016-10-27T07:02:37.044Z,1024.3
2016-10-27T07:03:37.059Z,1025.06
2016-10-27T07:04:37.115Z,1025.77
2016-10-27T07:05:37.059Z,1025.87
2016-10-27T07:06:37.056Z,1026.12
2016-10-27T07:07:37.057Z,1026.79
2016-10-27T07:08:37.049Z,1027.31
2016-10-27T07:09:37.044Z,1027.07
2016-10-27T07:10:37.061Z,1027.83
2016-10-27T07:11:37.046Z,1027.56
2016-10-27T07:12:37.049Z,1028.29
2016-10-27T07:13:37.058Z,1028.42
2016-10-27T07:14:37.047Z,1028.99
2016-10-27T07:15:37.043Z,1029.8
2016-10-27T07:16:37.063Z,1029.98
2016-10-27T07:17:37.060Z,1030.05
2016-10-27T07:18:37.034Z,1030.83
2016-10-27T07:19:37.068Z,1031.05
2016-10-27T07:20:37.078Z,1032.05
2016-10-27T07:21:37.068Z,1032.96
2016-10-27T07:22:37.050Z,1033.36
2016-10-27T07:23:37.100Z,1034.1
2016-10-27T07:24:37.069Z,1035.05
2016-10-27T07:25:37.078Z,1035.41
2016-10-27T07:26:37.076Z,1035.67
2016-10-27T07:27:37.056Z,1036.23
2016-10-27T07:28:37.081Z,1036.69
2016-10-27T07:29:37.081Z,1036.88
2016-10-27T07:30:37.072Z,1036.95
2016-10-27T07:31:37.053Z,1037.48
2016-10-27T07:32:37.101Z,1037.67
2016-10-27T07:33:37.092Z,1038.19
2016-10-27T07:34:37.111Z,1038.03
2016-10-27T07:35:37.079Z,1038.31
2016-10-27T07:36:37.069Z,1038.83
2016-10-27T07:37:37.094Z,1039.31
2016-10-27T07:38:37.085Z,1039.34
2016-10-27T07:39:37.091Z,1039.22
2016-10-27T07:40:37.071Z,1039.76
2016-10-27T07:41:37.076Z,1040.02
2016-10-27T07:42:37.097Z,1040.39
2016-10-27T07:43:37.069Z,1040.09
2016-10-27T07:44:37.081Z,1040.05
2016-10-27T07:45:37.059Z,1041.04
2016-10-27T07:46:37.065Z,1041.6
2016-10-27T07:47:37.087Z,1042.36
2016-10-27T07:48:37.081Z,1043.3
2016-10-27T07:49:37.075Z,1044.78
2016-10-27T07:50:37.075Z,1046.77
2016-10-27T07:51:37.087Z,1049.68
2016-10-27T07:52:37.084Z,1051.91
2016-10-27T07:53:37.095Z,1053.95
2016-10-27T07:54:37.092Z,1055.82
2016-10-27T07:55:37.087Z,1056.52
2016-10-27T07:56:37.132Z,1056.95
2016-10-27T07:57:37.094Z,1057.11
2016-10-27T07:58:37.089Z,1057.42
2016-10-27T07:59:37.097Z,1058.74
2016-10-27T08:00:37.087Z,1060.59
2016-10-27T08:01:37.081Z,1063.93
2016-10-27T08:02:37.110Z,1066.28
2016-10-27T08:03:37.085Z,1068.13
2016-10-27T08:04:37.101Z,1068.72
2016-10-27T08:05:37.094Z,1069.13
2016-10-27T08:06:37.100Z,1068.75
2016-10-27T08:07:37.090Z,1068.42
2016-10-27T08:08:37.078Z,1068.09
2016-10-27T08:09:37.097Z,1068.38
2016-10-27T08:10:37.103Z,1068.11
2016-10-27T08:11:37.097Z,1068.28
2016-10-27T08:12:37.118Z,1068.2
2016-10-27T08:13:37.081Z,1068.06
2016-10-27T08:14:37.168Z,1067.22
2016-10-27T08:15:37.107Z,1067.63
2016-10-27T08:16:37.084Z,1067.94
2016-10-27T08:17:37.101Z,1068.51
2016-10-27T08:18:37.107Z,1068.03
2016-10-27T08:19:37.102Z,1068.28
2016-10-27T08:20:37.100Z,1068.07
2016-10-27T08:21:37.104Z,1068.53
2016-10-27T08:22:37.100Z,1069.78
2016-10-27T08:23:37.091Z,1070.8
2016-10-27T08:24:37.092Z,1071.59
2016-10-27T08:25:37.100Z,1072.44
2016-10-27T08:26:37.120Z,1073.31
2016-10-27T08:27:37.111Z,1074.42
2016-10-27T08:28:37.116Z,1075.82
2016-10-27T08:29:37.117Z,1077.35
2016-10-27T08:30:37.289Z,1078.47
2016-10-27T08:31:37.106Z,1079.04
2016-10-27T08:32:37.113Z,1080.06
2016-10-27T08:33:37.133Z,1079.97
2016-10-27T08:34:37.126Z,1080.29
2016-10-27T08:35:37.111Z,1081.47
2016-10-27T08:36:37.139Z,1083.28
2016-10-27T08:37:37.127Z,1083.96
2016-10-27T08:38:37.123Z,1085.08
2016-10-27T08:39:37.132Z,1085.58
2016-10-27T08:40:37.122Z,1085.8
2016-10-27T08:41:37.113Z,1084.94
2016-10-27T08:42:37.119Z,1083.91
2016-10-27T08:43:37.129Z,1083.17
2016-10-27T08:44:37.119Z,1082.47
2016-10-27T08:45:37.167Z,1082.12
2016-10-27T08:46:37.212Z,1081.56
2016-10-27T08:47:37.118Z,1081.53
2016-10-27T08:48:37.124Z,1081.62
2016-10-27T08:49:37.143Z,1081.6
2016-10-27T08:50:37.129Z,1082.57
2016-10-27T08:51:37.132Z,1084.12
2016-10-27T08:52:37.135Z,1085.32
2016-10-27T08:53:37.129Z,1085.39
2016-10-27T08:54:37.133Z,1085.91
2016-10-27T08:55:37.127Z,1086.31
2016-10-27T08:56:37.145Z,1086.4
2016-10-27T08:57:37.146Z,1086.64
2016-10-27T08:58:37.175Z,1088.35
2016-10-27T08:59:37.139Z,1090.41
2016-10-27T09:00:37.222Z,1092.52
2016-10-27T09:01:37.165Z,1094.37
2016-10-27T09:02:37.190Z,1096.06
2016-10-27T09:03:37.127Z,1097.6
2016-10-27T09:04:37.148Z,1100.98
2016-10-27T09:05:37.138Z,1105.22
2016-10-27T09:06:37.180Z,1107.74
2016-10-27T09:07:37.171Z,1109.81
2016-10-27T09:08:37.159Z,1110.85
2016-10-27T09:09:37.148Z,1112.06
2016-10-27T09:10:37.222Z,1112.87
2016-10-27T09:11:37.133Z,1113.35
2016-10-27T09:12:37.139Z,1114.83
2016-10-27T09:13:38.130Z,1116.16
2016-10-27T09:14:37.161Z,1116.82
2016-10-27T09:15:37.158Z,1118.91
2016-10-27T09:16:37.162Z,1121.45
2016-10-27T09:17:37.164Z,1122.82
2016-10-27T09:18:37.154Z,1124.63
2016-10-27T09:19:37.156Z,1125.79
2016-10-27T09:20:37.245Z,1125.85
2016-10-27T09:21:37.188Z,1125.71
2016-10-27T09:22:37.156Z,1126.14
2016-10-27T09:23:37.156Z,1127.26
2016-10-27T09:24:37.161Z,1128.66
2016-10-27T09:25:37.191Z,1130.83
2016-10-27T09:26:37.174Z,1132.86
2016-10-27T09:27:37.185Z,1134.45
2016-10-27T09:28:37.166Z,1135.62
2016-10-27T09:29:37.229Z,1135.65
2016-10-27T09:30:37.166Z,1135.85
2016-10-27T09:31:37.158Z,1135.8
2016-10-27T09:32:37.187Z,1136.15
2016-10-27T09:33:37.169Z,1136.44
2016-10-27T09:34:37.174Z,1136.94
2016-10-27T09:35:37.167Z,1138.1
2016-10-27T09:36:37.184Z,1139.04
2016-10-27T09:37:37.194Z,1140.51
2016-10-27T09:38:37.174Z,1141.97
2016-10-27T09:39:37.187Z,1142.62
2016-10-27T09:40:37.172Z,1143.5
2016-10-27T09:41:37.177Z,1143.96
2016-10-27T09:42:37.159Z,1144.26
2016-10-27T09:43:37.167Z,1144.94
2016-10-27T09:44:37.167Z,1145.3
2016-10-27T09:45:37.177Z,1145.27
2016-10-27T09:46:37.161Z,1144.64
2016-10-27T09:47:37.169Z,1144.17
2016-10-27T09:48:37.167Z,1144.44
2016-10-27T09:49:37.183Z,1144.69
2016-10-27T09:50:37.193Z,1144.91
2016-10-27T09:51:37.165Z,1144.58
2016-10-27T09:52:37.198Z,1143.94
2016-10-27T09:53:37.174Z,1142.59
2016-10-27T09:54:37.173Z,1141.76
2016-10-27T09:55:37.180Z,1141.74
2016-10-27T09:56:37.181Z,1141.32
2016-10-27T09:57:37.177Z,1140.89
2016-10-27T09:58:37.179Z,1140.12
2016-10-27T09:59:37.188Z,1139.7
2016-10-27T10:00:37.199Z,1139.55
2016-10-27T10:01:37.193Z,1139.35
2016-10-27T10:02:37.190Z,1138.6
2016-10-27T10:03:37.229Z,1138.32
2016-10-27T10:04:37.212Z,1138.06
2016-10-27T10:05:37.187Z,1137.79
2016-10-27T10:06:37.203Z,1137.06
2016-10-27T10:07:37.187Z,1135.99
2016-10-27T10:08:37.192Z,1135.53
2016-10-27T10:09:37.199Z,1135.51
2016-10-27T10:10:37.193Z,1135.85
2016-10-27T10:11:37.202Z,1136.03
2016-10-27T10:12:37.197Z,1136.28
2016-10-27T10:13:37.194Z,1136.65
2016-10-27T10:14:37.221Z,1136.68
2016-10-27T10:15:37.203Z,1136.46
2016-10-27T10:16:37.202Z,1136.65
2016-10-27T10:17:37.201Z,1136.63
2016-10-27T10:18:37.190Z,1137.16
2016-10-27T10:19:37.203Z,1137.39
2016-10-27T10:20:37.225Z,1137.72
2016-10-27T10:21:37.204Z,1137.57
2016-10-27T10:22:37.201Z,1137.78
2016-10-27T10:23:37.398Z,1138.35
2016-10-27T10:24:37.218Z,1138.95
2016-10-27T10:25:37.210Z,1139.16
2016-10-27T10:26:37.226Z,1139.05
2016-10-27T10:27:37.238Z,1139.51
2016-10-27T10:28:37.217Z,1139.82
2016-10-27T10:29:37.205Z,1139.75
2016-10-27T10:30:37.200Z,1139.78
2016-10-27T10:31:37.232Z,1140.65
2016-10-27T10:32:37.239Z,1141.34
2016-10-27T10:33:37.217Z,1142.69
2016-10-27T10:34:37.213Z,1144.02
2016-10-27T10:35:37.219Z,1145.2
2016-10-27T10:36:37.218Z,1146.87
2016-10-27T10:37:37.205Z,1148.11
2016-10-27T10:38:37.211Z,1148.92
2016-10-27T10:39:37.229Z,1149.33
2016-10-27T10:40:37.233Z,1149.39
2016-10-27T10:41:37.219Z,1149.37
2016-10-27T10:42:37.228Z,1149.73
2016-10-27T10:43:37.234Z,1150.1
2016-10-27T10:44:37.225Z,1150.43
2016-10-27T10:45:37.490Z,1151.02
2016-10-27T10:46:37.241Z,1151.81
2016-10-27T10:47:37.229Z,1152.17
2016-10-27T10:48:37.829Z,1152.51
2016-10-27T10:49:37.228Z,1153.13
2016-10-27T10:50:37.235Z,1154.18
2016-10-27T10:51:37.233Z,1154.19
2016-10-27T10:52:37.232Z,1154.05
2016-10-27T10:53:37.223Z,1153.92
2016-10-27T10:54:37.329Z,1154.07
2016-10-27T10:55:37.238Z,1153.95
2016-10-27T10:56:37.218Z,1154.37
2016-10-27T10:57:37.238Z,1155.33
2016-10-27T10:58:37.233Z,1156.38
2016-10-27T10:59:37.239Z,1157.12
2016-10-27T11:00:37.280Z,1157.09
2016-10-27T11:01:37.484Z,1156.11
2016-10-27T11:02:37.222Z,1155.95
2016-10-27T11:03:37.231Z,1155.79
2016-10-27T11:04:37.236Z,1155.87
2016-10-27T11:05:37.229Z,1155.56
2016-10-27T11:06:37.249Z,1155.49
2016-10-27T11:07:37.257Z,1155.95
2016-10-27T11:08:37.278Z,1156.45
2016-10-27T11:09:37.281Z,1156.6
2016-10-27T11:10:37.306Z,1156.77
2016-10-27T11:11:37.270Z,1156.98
2016-10-27T11:12:37.311Z,1158.17
2016-10-27T11:13:37.251Z,1159.08
2016-10-27T11:14:37.248Z,1159.46
2016-10-27T11:15:37.251Z,1159.47
2016-10-27T11:16:37.241Z,1159.34
2016-10-27T11:17:37.251Z,1159.76
2016-10-27T11:18:37.247Z,1160.85
2016-10-27T11:19:37.251Z,1161.54
2016-10-27T11:20:37.259Z,1161.58
2016-10-27T11:21:37.277Z,1161.44
2016-10-27T11:22:37.277Z,1161.63
2016-10-27T11:23:37.321Z,1161.78
2016-10-27T11:24:37.279Z,1162.64
2016-10-27T11:25:37.276Z,1162.72
2016-10-27T11:26:37.258Z,1162.3
2016-10-27T11:27:37.261Z,1163.08
2016-10-27T11:28:37.270Z,1163.22
2016-10-27T11:29:37.292Z,1163.06
2016-10-27T11:30:37.271Z,1163.46
2016-10-27T11:31:37.276Z,1163.62
2016-10-27T11:32:37.258Z,1163.83
2016-10-27T11:33:37.312Z,1163.96
2016-10-27T11:34:37.258Z,1164.18
2016-10-27T11:35:37.262Z,1164.66
2016-10-27T11:36:37.280Z,1165.09
2016-10-27T11:37:37.261Z,1165.13
2016-10-27T11:38:37.296Z,1165.15
2016-10-27T11:39:37.274Z,1165.75
2016-10-27T11:40:37.282Z,1166.37
2016-10-27T11:41:37.288Z,1166.65
2016-10-27T11:42:37.270Z,1166.59
2016-10-27T11:43:37.278Z,1166.96
2016-10-27T11:44:37.269Z,1167.1
2016-10-27T11:45:37.286Z,1167.25
2016-10-27T11:46:37.293Z,1166.97
2016-10-27T11:47:37.286Z,1166.86
2016-10-27T11:48:37.280Z,1166.71
2016-10-27T11:49:37.282Z,1166.24
2016-10-27T11:50:37.279Z,1165.75
2016-10-27T11:51:37.295Z,1165.18
2016-10-27T11:52:37.321Z,1164.55
2016-10-27T11:53:37.293Z,1163.94
2016-10-27T11:54:37.295Z,1163.13
2016-10-27T11:55:37.286Z,1162.01
2016-10-27T11:56:37.280Z,1160.66
2016-10-27T11:57:37.285Z,1159.83
2016-10-27T11:58:37.290Z,1160.06
2016-10-27T11:59:37.311Z,1160.26
2016-10-27T12:00:37.297Z,1160.34
2016-10-27T12:01:37.285Z,1159.69
2016-10-27T12:02:37.303Z,1158.9
2016-10-27T12:03:37.295Z,1158.42
2016-10-27T12:04:37.296Z,1157.89
2016-10-27T12:05:37.285Z,1157.46
2016-10-27T12:06:37.326Z,1157.3
2016-10-27T12:07:37.297Z,1156.81
2016-10-27T12:08:37.311Z,1156.59
2016-10-27T12:09:37.326Z,1156.6
2016-10-27T12:10:37.302Z,1155.96
2016-10-27T12:11:37.309Z,1155.14
2016-10-27T12:12:37.297Z,1154.6
2016-10-27T12:13:37.347Z,1154.52
2016-10-27T12:14:37.331Z,1154.77
2016-10-27T12:15:37.299Z,1154.63
2016-10-27T12:16:37.313Z,1154.45
2016-10-27T12:17:37.331Z,1154.07